createdAt,value
2023-01-29T00:02:58.676Z,-0.49
2023-01-29T00:08:00.566Z,-0.62
2023-01-29T00:13:02.084Z,-0.72
2023-01-29T00:18:03.881Z,-0.77
2023-01-29T00:23:05.377Z,-0.80
2023-01-29T00:28:07.247Z,-0.82
2023-01-29T00:33:08.743Z,-0.85
2023-01-29T00:38:10.720Z,-0.86
2023-01-29T00:43:30.437Z,-0.81
2023-01-29T00:48:32.529Z,-0.73
2023-01-29T00:53:34.045Z,-0.72
2023-01-29T00:58:35.651Z,-0.72
2023-01-29T01:03:42.474Z,-0.77
2023-01-29T01:09:02.779Z,-0.82
2023-01-29T01:14:04.273Z,-0.86
2023-01-29T01:19:06.071Z,-0.91
2023-01-29T01:24:07.782Z,-0.95
2023-01-29T01:29:09.525Z,-1.05
2023-01-29T01:34:11.356Z,-1.10
2023-01-29T01:39:12.918Z,-1.16
2023-01-29T01:44:51.584Z,-1.21
2023-01-29T01:49:56.458Z,-1.23
2023-01-29T01:55:00.093Z,-1.26
2023-01-29T02:00:11.583Z,-1.30
2023-01-29T02:05:32.872Z,-1.27
2023-01-29T02:10:47.727Z,-1.17
2023-01-29T02:15:50.659Z,-1.03
2023-01-29T02:21:29.256Z,-0.95
2023-01-29T02:26:55.424Z,-0.92
2023-01-29T02:32:11.899Z,-0.96
2023-01-29T02:37:14.426Z,-1.03
2023-01-29T02:42:32.353Z,-1.10
2023-01-29T02:47:57.516Z,-1.16
2023-01-29T02:53:07.941Z,-1.23
2023-01-29T02:58:28.070Z,-1.30
2023-01-29T03:03:41.819Z,-1.33
2023-01-29T03:08:50.104Z,-1.38
2023-01-29T03:14:04.421Z,-1.40
2023-01-29T03:19:10.901Z,-1.41
2023-01-29T03:24:33.969Z,-1.42
2023-01-29T03:29:56.841Z,-1.37
2023-01-29T03:35:04.841Z,-1.26
2023-01-29T03:40:08.201Z,-1.14
2023-01-29T03:45:24.321Z,-1.04
2023-01-29T03:50:37.450Z,-0.99
2023-01-29T03:56:02.041Z,-1.00
2023-01-29T04:01:06.953Z,-1.10
2023-01-29T04:06:30.580Z,-1.15
2023-01-29T04:11:36.159Z,-1.23
2023-01-29T04:16:41.966Z,-1.29
2023-01-29T04:21:45.393Z,-1.33
2023-01-29T04:26:55.021Z,-1.39
2023-01-29T04:32:11.346Z,-1.39
2023-01-29T04:37:19.544Z,-1.30
2023-01-29T04:42:31.267Z,-1.20
2023-01-29T04:47:40.097Z,-1.15
2023-01-29T04:52:47.585Z,-1.16
2023-01-29T04:58:07.515Z,-1.17
2023-01-29T05:03:13.421Z,-1.24
2023-01-29T05:08:20.776Z,-1.29
2023-01-29T05:13:24.687Z,-1.34
2023-01-29T05:18:26.457Z,-1.37
2023-01-29T05:23:28.276Z,-1.26
2023-01-29T05:28:31.146Z,-1.12
2023-01-29T05:33:32.650Z,-1.03
2023-01-29T05:38:34.547Z,-0.99
2023-01-29T05:43:36.378Z,-1.03
2023-01-29T05:48:38.269Z,-1.09
2023-01-29T05:53:39.948Z,-1.13
2023-01-29T05:58:41.483Z,-1.17
2023-01-29T06:03:43.738Z,-1.21
2023-01-29T06:08:45.466Z,-1.24
2023-01-29T06:13:47.893Z,-1.20
2023-01-29T06:18:49.402Z,-1.05
2023-01-29T06:23:53.803Z,-0.90
2023-01-29T06:28:55.438Z,-0.83
2023-01-29T06:33:57.117Z,-0.82
2023-01-29T06:38:58.621Z,-0.83
2023-01-29T06:44:00.249Z,-0.84
2023-01-29T06:49:01.821Z,-0.84
2023-01-29T06:54:03.522Z,-0.85
2023-01-29T06:59:05.859Z,-0.84
2023-01-29T07:04:07.675Z,-0.81
2023-01-29T07:09:12.769Z,-0.70
2023-01-29T07:14:14.800Z,-0.50
2023-01-29T07:19:16.317Z,-0.33
2023-01-29T07:24:19.479Z,-0.23
2023-01-29T07:29:21.101Z,-0.20
2023-01-29T07:34:22.576Z,-0.19
2023-01-29T07:39:24.092Z,-0.21
2023-01-29T07:44:25.564Z,-0.24
2023-01-29T07:49:27.049Z,-0.26
2023-01-29T07:54:28.852Z,-0.15
2023-01-29T07:59:31.183Z,0.01
2023-01-29T08:04:32.683Z,0.12
2023-01-29T08:09:34.338Z,0.17
2023-01-29T08:14:36.087Z,0.21
2023-01-29T08:19:37.588Z,0.25
2023-01-29T08:24:53.324Z,0.37
2023-01-29T08:29:56.117Z,0.47
2023-01-29T08:34:57.712Z,0.55
2023-01-29T08:39:59.484Z,0.59
2023-01-29T08:45:01.010Z,0.65
2023-01-29T08:50:02.786Z,0.72
2023-01-29T08:55:04.656Z,0.76
2023-01-29T09:00:07.971Z,0.90
2023-01-29T09:05:10.219Z,1.24
2023-01-29T09:10:12.350Z,1.29
2023-01-29T09:15:13.924Z,1.40
2023-01-29T09:20:15.991Z,1.51
2023-01-29T09:25:17.936Z,1.57
2023-01-29T09:30:19.788Z,1.58
2023-01-29T09:35:23.038Z,1.67
2023-01-29T09:40:45.731Z,1.90
2023-01-29T09:45:58.647Z,2.13
2023-01-29T09:51:06.598Z,2.35
2023-01-29T09:56:18.578Z,2.82
2023-01-29T10:01:29.561Z,2.99
2023-01-29T10:06:47.669Z,3.10
2023-01-29T10:12:28.317Z,3.25
2023-01-29T10:17:54.096Z,3.34
2023-01-29T10:23:12.819Z,3.45
2023-01-29T10:28:18.700Z,3.58
2023-01-29T10:33:49.372Z,3.59
2023-01-29T10:38:56.393Z,3.39
2023-01-29T10:44:05.476Z,3.13
2023-01-29T10:49:37.903Z,2.82
2023-01-29T10:55:15.227Z,2.51
2023-01-29T11:00:25.003Z,2.24
2023-01-29T11:05:33.100Z,2.14
2023-01-29T11:10:42.008Z,2.20
2023-01-29T11:15:43.889Z,2.26
2023-01-29T11:20:47.117Z,2.28
2023-01-29T11:25:53.674Z,2.20
2023-01-29T11:30:55.517Z,2.10
2023-01-29T11:35:58.104Z,2.00
2023-01-29T11:41:18.834Z,1.97
2023-01-29T11:46:20.868Z,2.10
2023-01-29T11:51:27.088Z,2.26
2023-01-29T11:56:49.221Z,2.36
2023-01-29T12:01:50.821Z,2.44
2023-01-29T12:06:54.063Z,2.44
2023-01-29T12:11:56.217Z,2.33
2023-01-29T12:17:11.731Z,2.26
2023-01-29T12:22:31.404Z,2.19
2023-01-29T12:27:48.083Z,2.21
2023-01-29T12:32:55.623Z,2.24
2023-01-29T12:38:20.351Z,2.24
2023-01-29T12:43:27.593Z,2.11
2023-01-29T12:48:34.466Z,1.94
2023-01-29T12:53:42.216Z,1.85
2023-01-29T12:58:51.424Z,1.81
2023-01-29T13:04:02.726Z,1.73
2023-01-29T13:09:09.967Z,1.62
2023-01-29T13:14:33.348Z,1.54
2023-01-29T13:19:40.484Z,1.48
2023-01-29T13:24:55.508Z,1.44
2023-01-29T13:30:06.128Z,1.41
2023-01-29T13:35:14.941Z,1.38
2023-01-29T13:40:25.803Z,1.33
2023-01-29T13:45:35.109Z,1.23
2023-01-29T13:50:40.385Z,1.17
2023-01-29T13:55:41.967Z,1.15
2023-01-29T14:00:43.625Z,1.09
2023-01-29T14:05:58.434Z,1.03
2023-01-29T14:11:15.403Z,0.92
2023-01-29T14:16:16.932Z,0.85
2023-01-29T14:21:31.844Z,0.83
2023-01-29T14:26:43.681Z,0.79
2023-01-29T14:31:51.101Z,0.66
2023-01-29T14:36:56.768Z,0.64
2023-01-29T14:41:59.837Z,0.67
2023-01-29T14:47:01.357Z,0.69
2023-01-29T14:52:03.772Z,0.56
2023-01-29T14:57:09.048Z,0.41
2023-01-29T15:02:38.426Z,0.34
2023-01-29T15:07:49.530Z,0.29
2023-01-29T15:13:17.799Z,0.30
2023-01-29T15:18:43.893Z,0.32
2023-01-29T15:23:48.907Z,0.29
2023-01-29T15:29:04.156Z,0.24
2023-01-29T15:34:07.741Z,0.24
2023-01-29T15:39:09.244Z,0.18
2023-01-29T15:44:16.820Z,0.08
2023-01-29T15:49:38.003Z,0.02
2023-01-29T15:54:39.727Z,0.02
2023-01-29T15:59:44.986Z,0.02
2023-01-29T16:04:46.837Z,-0.00
2023-01-29T16:09:49.859Z,-0.01
2023-01-29T16:14:52.584Z,0.03
2023-01-29T16:20:01.401Z,0.07
2023-01-29T16:25:12.504Z,0.08
2023-01-29T16:30:16.538Z,0.04
2023-01-29T16:35:19.082Z,0.06
2023-01-29T16:40:27.219Z,0.11
2023-01-29T16:45:29.609Z,0.20
2023-01-29T16:50:40.671Z,0.27
2023-01-29T16:55:49.659Z,0.29
2023-01-29T17:01:13.706Z,0.23
2023-01-29T17:06:26.644Z,0.17
2023-01-29T17:11:31.213Z,0.16
2023-01-29T17:16:36.210Z,0.19
2023-01-29T17:21:37.737Z,0.27
2023-01-29T17:26:40.017Z,0.37
2023-01-29T17:31:42.864Z,0.39
2023-01-29T17:36:45.154Z,0.32
2023-01-29T17:41:52.651Z,0.25
2023-01-29T17:46:55.711Z,0.26
2023-01-29T17:51:57.706Z,0.28
2023-01-29T17:56:59.571Z,0.31
2023-01-29T18:02:01.220Z,0.36
2023-01-29T18:07:02.806Z,0.30
2023-01-29T18:12:10.297Z,0.30
2023-01-29T18:17:11.842Z,0.38
2023-01-29T18:22:14.049Z,0.41
2023-01-29T18:27:15.752Z,0.37
2023-01-29T18:32:17.642Z,0.32
2023-01-29T18:37:19.341Z,0.26
2023-01-29T18:42:21.068Z,0.24
2023-01-29T18:47:23.718Z,0.20
2023-01-29T18:52:26.191Z,0.17
2023-01-29T18:58:28.577Z,0.19
2023-01-29T19:02:50.804Z,0.25
2023-01-29T19:07:52.468Z,0.28
2023-01-29T19:12:54.157Z,0.25
2023-01-29T19:17:56.454Z,0.25
2023-01-29T19:22:58.329Z,0.31
2023-01-29T19:27:59.957Z,0.37
2023-01-29T19:33:01.615Z,0.38
2023-01-29T19:38:04.698Z,0.32
2023-01-29T19:43:06.436Z,0.29
2023-01-29T19:48:08.304Z,0.30
2023-01-29T19:53:10.051Z,0.36
2023-01-29T19:58:11.616Z,0.38
2023-01-29T20:03:15.356Z,0.37
2023-01-29T20:08:17.563Z,0.39
2023-01-29T20:13:19.568Z,0.47
2023-01-29T20:18:21.784Z,0.43
2023-01-29T20:23:37.291Z,0.30
2023-01-29T20:28:39.840Z,0.24
2023-01-29T20:33:41.878Z,0.28
2023-01-29T20:38:43.450Z,0.35
2023-01-29T20:43:46.915Z,0.36
2023-01-29T20:48:49.477Z,0.30
2023-01-29T20:53:51.385Z,0.30
2023-01-29T20:58:53.068Z,0.31
2023-01-29T21:03:54.544Z,0.32
2023-01-29T21:08:56.095Z,0.36
2023-01-29T21:13:57.895Z,0.37
2023-01-29T21:19:00.032Z,0.37
2023-01-29T21:24:01.624Z,0.31
2023-01-29T21:29:03.170Z,0.28
2023-01-29T21:34:05.217Z,0.27
2023-01-29T21:39:16.805Z,0.26
2023-01-29T21:44:18.319Z,0.28
2023-01-29T21:49:19.964Z,0.31
2023-01-29T21:54:21.479Z,0.36
2023-01-29T21:59:24.069Z,0.37
2023-01-29T22:04:26.645Z,0.33
2023-01-29T22:09:28.176Z,0.24
2023-01-29T22:14:29.753Z,0.20
2023-01-29T22:19:31.262Z,0.17
2023-01-29T22:24:33.047Z,0.18
2023-01-29T22:29:35.045Z,0.17
2023-01-29T22:34:36.995Z,0.18
2023-01-29T22:39:38.492Z,0.19
2023-01-29T22:44:40.352Z,0.20
2023-01-29T22:49:42.775Z,0.23
2023-01-29T22:54:44.536Z,0.27
2023-01-29T22:59:46.094Z,0.29
2023-01-29T23:04:47.645Z,0.32
2023-01-29T23:09:49.178Z,0.35
2023-01-29T23:14:50.679Z,0.39
2023-01-29T23:19:52.191Z,0.42
2023-01-29T23:24:53.722Z,0.44
2023-01-29T23:29:55.334Z,0.48
2023-01-29T23:34:57.115Z,0.49
2023-01-29T23:39:58.603Z,0.52
2023-01-29T23:45:00.144Z,0.54
2023-01-29T23:50:01.796Z,0.55
2023-01-29T23:55:05.035Z,0.57
